createdAt,value
2023-03-06T00:01:33.374Z,6.03
2023-03-06T00:03:35.518Z,6.63
2023-03-06T00:05:37.470Z,7.63
2023-03-06T00:07:39.178Z,8.30
2023-03-06T00:09:40.693Z,7.53
2023-03-06T00:11:42.607Z,7.68
2023-03-06T00:13:44.979Z,7.38
2023-03-06T00:15:47.190Z,10.57
2023-03-06T00:17:49.018Z,6.47
2023-03-06T00:19:50.661Z,9.00
2023-03-06T00:21:52.253Z,6.22
2023-03-06T00:23:53.863Z,9.13
2023-03-06T00:25:55.457Z,7.45
2023-03-06T00:27:56.976Z,7.32
2023-03-06T00:30:00.756Z,5.35
2023-03-06T00:32:02.451Z,6.60
2023-03-06T00:34:04.585Z,5.45
2023-03-06T00:36:06.628Z,5.93
2023-03-06T00:38:11.631Z,7.25
2023-03-06T00:40:15.861Z,6.72
2023-03-06T00:42:18.422Z,6.60
2023-03-06T00:44:20.014Z,8.82
2023-03-06T00:46:21.695Z,7.72
2023-03-06T00:48:23.320Z,9.05
2023-03-06T00:50:27.521Z,12.30
2023-03-06T00:52:29.173Z,6.97
2023-03-06T00:54:30.684Z,6.95
2023-03-06T00:56:32.246Z,6.90
2023-03-06T00:58:33.818Z,5.68
2023-03-06T01:00:35.639Z,5.57
2023-03-06T01:02:37.440Z,5.05
2023-03-06T01:04:39.601Z,7.07
2023-03-06T01:06:41.246Z,7.50
2023-03-06T01:08:43.051Z,6.38
2023-03-06T01:10:45.074Z,7.35
2023-03-06T01:12:46.921Z,5.00
2023-03-06T01:14:48.504Z,5.78
2023-03-06T01:16:50.527Z,7.85
2023-03-06T01:18:52.305Z,7.13
2023-03-06T01:20:54.018Z,6.43
2023-03-06T01:22:56.500Z,4.53
2023-03-06T01:24:58.053Z,5.60
2023-03-06T01:26:59.621Z,4.65
2023-03-06T01:29:01.780Z,6.50
2023-03-06T01:31:04.104Z,4.00
2023-03-06T01:33:05.754Z,5.88
2023-03-06T01:35:07.578Z,5.32
2023-03-06T01:37:09.122Z,5.38
2023-03-06T01:39:10.729Z,6.25
2023-03-06T01:41:15.637Z,5.05
2023-03-06T01:43:31.520Z,5.90
2023-03-06T01:45:33.332Z,5.30
2023-03-06T01:47:35.308Z,5.53
2023-03-06T01:49:40.139Z,8.25
2023-03-06T01:51:53.446Z,5.38
2023-03-06T01:53:56.337Z,4.65
2023-03-06T01:55:58.242Z,5.25
2023-03-06T01:58:07.186Z,5.38
2023-03-06T02:02:18.056Z,5.40
2023-03-06T02:04:20.446Z,7.20
2023-03-06T02:06:22.256Z,6.28
2023-03-06T02:08:24.475Z,4.07
2023-03-06T02:10:26.043Z,5.50
2023-03-06T02:12:27.967Z,5.97
2023-03-06T02:14:30.059Z,4.78
2023-03-06T02:16:32.891Z,4.05
2023-03-06T02:20:45.272Z,4.47
2023-03-06T02:22:57.005Z,4.55
2023-03-06T02:25:07.741Z,6.43
2023-03-06T02:27:12.321Z,6.68
2023-03-06T02:29:20.196Z,6.05
2023-03-06T02:31:27.448Z,4.38
2023-03-06T02:33:29.875Z,6.05
2023-03-06T02:35:38.584Z,3.53
2023-03-06T02:37:40.253Z,5.60
2023-03-06T02:39:46.760Z,6.10
2023-03-06T02:41:48.685Z,4.68
2023-03-06T02:43:52.601Z,4.60
2023-03-06T02:45:54.197Z,5.90
2023-03-06T02:47:55.801Z,5.28
2023-03-06T02:49:57.400Z,6.30
2023-03-06T02:51:59.094Z,5.00
2023-03-06T02:54:00.728Z,5.05
2023-03-06T02:56:02.452Z,3.78
2023-03-06T02:58:04.688Z,5.65
2023-03-06T03:00:07.206Z,6.32
2023-03-06T03:02:09.514Z,5.05
2023-03-06T03:04:11.233Z,3.75
2023-03-06T03:06:13.880Z,6.35
2023-03-06T03:08:15.917Z,6.78
2023-03-06T03:10:17.827Z,4.75
2023-03-06T03:12:22.241Z,4.55
2023-03-06T03:14:24.599Z,4.93
2023-03-06T03:16:26.444Z,4.63
2023-03-06T03:18:31.954Z,6.28
2023-03-06T03:20:33.774Z,5.28
2023-03-06T03:22:35.597Z,3.85
2023-03-06T03:24:37.149Z,7.10
2023-03-06T03:26:39.246Z,6.55
2023-03-06T03:28:46.482Z,5.25
2023-03-06T03:30:51.522Z,5.72
2023-03-06T03:32:53.319Z,7.15
2023-03-06T03:34:56.066Z,4.38
2023-03-06T03:36:58.882Z,5.75
2023-03-06T03:39:00.567Z,5.47
2023-03-06T03:41:03.045Z,5.68
2023-03-06T03:45:07.934Z,5.85
2023-03-06T03:47:09.666Z,6.55
2023-03-06T03:49:11.576Z,4.78
2023-03-06T03:51:16.491Z,6.28
2023-03-06T03:53:21.933Z,5.57
2023-03-06T03:55:23.593Z,5.30
2023-03-06T03:57:25.497Z,6.78
2023-03-06T03:59:28.656Z,6.03
2023-03-06T04:01:45.818Z,7.45
2023-03-06T04:03:47.819Z,5.30
2023-03-06T04:05:53.836Z,7.47
2023-03-06T04:07:55.335Z,8.98
2023-03-06T04:09:57.119Z,5.63
2023-03-06T04:11:59.193Z,6.70
2023-03-06T04:14:00.987Z,5.90
2023-03-06T04:16:02.920Z,7.30
2023-03-06T04:18:06.579Z,7.45
2023-03-06T04:20:09.817Z,7.63
2023-03-06T04:22:11.594Z,7.43
2023-03-06T04:24:14.926Z,8.18
2023-03-06T04:26:17.563Z,6.47
2023-03-06T04:28:20.138Z,6.55
2023-03-06T04:30:21.985Z,7.78
2023-03-06T04:32:24.300Z,6.78
2023-03-06T04:36:33.344Z,6.82
2023-03-06T04:38:42.021Z,6.95
2023-03-06T04:40:45.145Z,7.32
2023-03-06T04:42:47.829Z,6.70
2023-03-06T04:44:49.371Z,9.02
2023-03-06T04:46:51.058Z,7.47
2023-03-06T04:48:52.645Z,7.15
2023-03-06T04:50:54.234Z,7.15
2023-03-06T04:52:55.801Z,7.72
2023-03-06T04:54:57.740Z,3.92
2023-03-06T04:56:59.373Z,6.68
2023-03-06T04:59:02.554Z,7.30
2023-03-06T05:01:04.735Z,7.85
2023-03-06T05:03:06.307Z,6.78
2023-03-06T05:05:08.866Z,7.78
2023-03-06T05:07:10.802Z,7.53
2023-03-06T05:09:12.358Z,5.65
2023-03-06T05:11:13.857Z,7.15
2023-03-06T05:13:15.454Z,6.57
2023-03-06T05:15:17.380Z,7.45
2023-03-06T05:17:18.901Z,6.68
2023-03-06T05:19:20.746Z,6.07
2023-03-06T05:21:22.769Z,6.82
2023-03-06T05:23:24.349Z,6.45
2023-03-06T05:25:26.253Z,7.50
2023-03-06T05:27:28.515Z,7.95
2023-03-06T05:29:30.198Z,8.18
2023-03-06T05:31:31.806Z,7.18
2023-03-06T05:33:35.161Z,7.90
2023-03-06T05:35:36.760Z,5.90
2023-03-06T05:37:38.236Z,7.28
2023-03-06T05:39:39.923Z,7.63
2023-03-06T05:41:41.525Z,6.05
2023-03-06T05:43:44.251Z,8.25
2023-03-06T05:45:45.847Z,7.70
2023-03-06T05:47:47.426Z,6.25
2023-03-06T05:49:49.031Z,8.35
2023-03-06T05:51:50.606Z,6.00
2023-03-06T05:53:52.315Z,6.10
2023-03-06T05:55:58.861Z,7.60
2023-03-06T05:58:00.410Z,9.00
2023-03-06T06:00:01.998Z,7.50
2023-03-06T06:02:05.412Z,6.40
2023-03-06T06:04:07.209Z,7.22
2023-03-06T06:06:11.003Z,8.10
2023-03-06T06:08:12.518Z,7.30
2023-03-06T06:10:14.273Z,7.25
2023-03-06T06:12:15.901Z,7.88
2023-03-06T06:14:17.612Z,9.52
2023-03-06T06:16:19.414Z,11.32
2023-03-06T06:18:21.349Z,8.43
2023-03-06T06:20:24.152Z,8.70
2023-03-06T06:22:25.857Z,9.82
2023-03-06T06:24:27.446Z,8.52
2023-03-06T06:26:29.022Z,10.05
2023-03-06T06:28:31.154Z,10.20
2023-03-06T06:30:33.442Z,12.07
2023-03-06T06:32:36.394Z,12.88
2023-03-06T06:34:38.043Z,8.93
2023-03-06T06:36:40.344Z,9.05
2023-03-06T06:38:41.900Z,9.65
2023-03-06T06:40:46.968Z,9.52
2023-03-06T06:43:00.158Z,11.90
2023-03-06T06:45:02.316Z,8.27
2023-03-06T06:47:23.471Z,9.00
2023-03-06T06:49:25.898Z,10.52
2023-03-06T06:51:27.430Z,11.50
2023-03-06T06:53:29.037Z,9.55
2023-03-06T06:55:30.650Z,14.40
2023-03-06T06:57:32.299Z,19.90
2023-03-06T06:59:33.908Z,17.65
2023-03-06T07:01:35.629Z,14.30
2023-03-06T07:03:37.799Z,10.55
2023-03-06T07:05:39.608Z,10.13
2023-03-06T07:07:41.462Z,12.55
2023-03-06T07:09:43.749Z,9.88
2023-03-06T07:11:45.353Z,10.77
2023-03-06T07:13:47.517Z,10.52
2023-03-06T07:15:49.115Z,10.27
2023-03-06T07:17:50.727Z,8.60
2023-03-06T07:19:52.341Z,9.88
2023-03-06T07:21:53.997Z,9.43
2023-03-06T07:23:57.353Z,11.15
2023-03-06T07:25:59.250Z,8.40
2023-03-06T07:28:01.056Z,11.75
2023-03-06T07:30:02.811Z,13.18
2023-03-06T07:32:05.078Z,10.35
2023-03-06T07:34:06.734Z,11.80
2023-03-06T07:36:12.724Z,12.07
2023-03-06T07:38:14.599Z,10.13
2023-03-06T07:40:16.505Z,9.02
2023-03-06T07:42:18.045Z,11.23
2023-03-06T07:44:30.282Z,10.50
2023-03-06T07:46:31.991Z,10.63
2023-03-06T07:48:34.512Z,10.70
2023-03-06T07:50:36.240Z,10.82
2023-03-06T07:52:37.845Z,11.50
2023-03-06T07:54:39.474Z,9.32
2023-03-06T07:56:41.163Z,10.00
2023-03-06T07:58:46.193Z,10.25
2023-03-06T08:00:47.977Z,9.70
2023-03-06T08:02:49.544Z,10.38
2023-03-06T08:04:55.275Z,10.52
2023-03-06T08:06:59.401Z,11.00
2023-03-06T08:09:01.036Z,10.73
2023-03-06T08:11:03.569Z,10.32
2023-03-06T08:13:05.151Z,8.95
2023-03-06T08:15:09.315Z,10.20
2023-03-06T08:17:10.841Z,10.40
2023-03-06T08:19:12.446Z,10.45
2023-03-06T08:21:19.750Z,8.55
2023-03-06T08:23:21.304Z,11.02
2023-03-06T08:25:24.558Z,8.90
2023-03-06T08:27:26.181Z,13.95
2023-03-06T08:29:27.718Z,10.20
2023-03-06T08:31:39.665Z,10.52
2023-03-06T08:33:41.270Z,10.93
2023-03-06T08:35:43.157Z,9.90
2023-03-06T08:37:45.146Z,11.05
2023-03-06T08:39:46.809Z,10.18
2023-03-06T08:41:48.328Z,10.77
2023-03-06T08:43:50.356Z,10.13
2023-03-06T08:45:57.175Z,9.80
2023-03-06T08:47:58.960Z,13.18
2023-03-06T08:50:00.953Z,10.55
2023-03-06T08:52:02.582Z,9.68
2023-03-06T08:54:04.361Z,11.20
2023-03-06T08:56:06.557Z,10.48
2023-03-06T08:58:08.565Z,10.30
2023-03-06T09:00:10.975Z,12.20
2023-03-06T09:02:13.170Z,9.90
2023-03-06T09:04:14.813Z,9.95
2023-03-06T09:06:17.012Z,9.63
2023-03-06T09:08:18.557Z,10.55
2023-03-06T09:10:22.499Z,9.52
2023-03-06T09:12:24.232Z,10.75
2023-03-06T09:14:25.898Z,12.25
2023-03-06T09:16:27.865Z,11.50
2023-03-06T09:18:29.507Z,11.50
2023-03-06T09:20:31.361Z,10.88
2023-03-06T09:22:33.461Z,10.18
2023-03-06T09:24:35.361Z,9.40
2023-03-06T09:26:45.525Z,9.43
2023-03-06T09:28:48.379Z,9.68
2023-03-06T09:30:50.325Z,9.68
2023-03-06T09:32:51.996Z,9.18
2023-03-06T09:34:53.667Z,12.40
2023-03-06T09:36:57.133Z,8.27
2023-03-06T09:38:59.322Z,13.90
2023-03-06T09:43:20.595Z,9.20
2023-03-06T09:45:22.724Z,8.73
2023-03-06T09:47:40.564Z,9.98
2023-03-06T09:49:52.134Z,9.25
2023-03-06T09:52:17.702Z,11.10
2023-03-06T09:54:26.575Z,9.23
2023-03-06T09:56:32.713Z,11.15
2023-03-06T09:58:40.804Z,9.25
2023-03-06T10:00:55.364Z,10.00
2023-03-06T10:03:12.697Z,10.13
2023-03-06T10:05:24.221Z,8.82
2023-03-06T10:07:42.855Z,12.65
2023-03-06T10:09:56.970Z,10.32
2023-03-06T10:12:04.770Z,10.38
2023-03-06T10:14:20.261Z,10.43
2023-03-06T10:16:30.658Z,11.70
2023-03-06T10:18:32.955Z,12.05
2023-03-06T10:20:43.997Z,11.48
2023-03-06T10:23:07.093Z,10.82
2023-03-06T10:25:43.672Z,10.45
2023-03-06T10:27:47.556Z,11.15
2023-03-06T10:30:19.734Z,12.07
2023-03-06T10:32:46.257Z,12.45
2023-03-06T10:34:50.405Z,10.82
2023-03-06T10:36:52.037Z,9.60
2023-03-06T10:38:56.226Z,12.85
2023-03-06T10:41:13.015Z,9.88
2023-03-06T10:43:14.692Z,9.77
2023-03-06T10:45:17.440Z,12.20
2023-03-06T10:47:29.992Z,8.18
2023-03-06T10:49:37.308Z,7.28
2023-03-06T10:51:39.005Z,6.90
2023-03-06T10:53:48.669Z,7.38
2023-03-06T10:55:58.839Z,7.45
2023-03-06T10:58:29.181Z,7.38
2023-03-06T11:00:37.921Z,8.40
2023-03-06T11:02:41.025Z,9.75
2023-03-06T11:04:51.013Z,10.50
2023-03-06T11:07:12.592Z,10.13
2023-03-06T11:09:25.669Z,9.20
2023-03-06T11:11:37.152Z,12.45
2023-03-06T11:13:45.150Z,9.90
2023-03-06T11:15:58.197Z,8.02
2023-03-06T11:18:07.521Z,10.13
2023-03-06T11:20:16.424Z,9.93
2023-03-06T11:24:22.934Z,10.10
2023-03-06T11:26:34.449Z,7.88
2023-03-06T11:28:49.884Z,10.68
2023-03-06T11:31:02.409Z,9.85
2023-03-06T11:33:16.264Z,8.88
2023-03-06T11:35:51.766Z,12.75
2023-03-06T11:38:00.738Z,9.73
2023-03-06T11:42:27.733Z,9.75
2023-03-06T11:45:25.892Z,11.50
2023-03-06T11:47:39.170Z,11.35
2023-03-06T11:49:45.751Z,11.52
2023-03-06T11:51:55.247Z,10.20
2023-03-06T11:54:00.293Z,10.52
2023-03-06T11:56:19.900Z,14.05
2023-03-06T11:58:49.558Z,12.18
2023-03-06T12:01:12.922Z,12.98
2023-03-06T12:03:31.576Z,12.18
2023-03-06T12:06:01.220Z,12.45
2023-03-06T12:08:16.774Z,14.27
2023-03-06T12:10:28.621Z,12.00
2023-03-06T12:13:01.220Z,15.18
2023-03-06T12:15:22.218Z,11.35
2023-03-06T12:17:42.852Z,10.32
2023-03-06T12:22:09.632Z,10.00
2023-03-06T12:24:36.401Z,13.25
2023-03-06T12:29:20.932Z,10.90
2023-03-06T12:31:51.207Z,11.93
2023-03-06T12:34:14.092Z,10.82
2023-03-06T12:36:40.749Z,9.43
2023-03-06T12:38:53.057Z,11.18
2023-03-06T12:41:11.322Z,12.93
2023-03-06T12:43:54.846Z,12.68
2023-03-06T12:46:03.473Z,11.88
2023-03-06T12:48:14.923Z,10.30
2023-03-06T12:50:23.917Z,10.25
2023-03-06T12:52:30.695Z,10.27
2023-03-06T12:54:37.395Z,11.40
2023-03-06T12:56:39.732Z,8.30
2023-03-06T12:58:51.992Z,8.45
2023-03-06T13:01:16.600Z,9.65
2023-03-06T13:03:54.392Z,8.82
2023-03-06T13:06:27.627Z,7.80
2023-03-06T13:08:54.182Z,6.97
2023-03-06T13:11:54.049Z,7.82
2023-03-06T13:13:56.500Z,10.50
2023-03-06T13:16:12.646Z,8.38
2023-03-06T13:18:23.242Z,8.35
2023-03-06T13:20:42.964Z,8.75
2023-03-06T13:22:47.186Z,9.27
2023-03-06T13:25:08.928Z,10.27
2023-03-06T13:27:12.373Z,9.23
2023-03-06T13:29:35.633Z,8.13
2023-03-06T13:31:37.449Z,8.55
2023-03-06T13:33:39.069Z,7.82
2023-03-06T13:35:40.625Z,9.10
2023-03-06T13:37:50.106Z,9.23
2023-03-06T13:39:58.407Z,8.25
2023-03-06T13:42:00.239Z,7.72
2023-03-06T13:44:24.911Z,8.73
2023-03-06T13:46:35.201Z,8.77
2023-03-06T13:48:44.678Z,8.65
2023-03-06T13:50:48.786Z,9.60
2023-03-06T13:53:09.034Z,8.95
2023-03-06T13:55:33.408Z,9.30
2023-03-06T13:57:45.014Z,9.13
2023-03-06T14:00:11.875Z,8.80
2023-03-06T14:02:39.674Z,10.95
2023-03-06T14:04:47.041Z,8.43
2023-03-06T14:07:06.632Z,10.63
2023-03-06T14:09:23.027Z,10.82
2023-03-06T14:11:25.238Z,9.90
2023-03-06T14:13:45.256Z,8.60
2023-03-06T14:15:54.145Z,9.38
2023-03-06T14:18:07.144Z,9.95
2023-03-06T14:20:17.849Z,8.93
2023-03-06T14:22:24.614Z,7.25
2023-03-06T14:24:54.025Z,9.52
2023-03-06T14:26:55.718Z,8.70
2023-03-06T14:29:02.568Z,10.05
2023-03-06T14:31:05.980Z,10.52
2023-03-06T14:33:11.471Z,8.60
2023-03-06T14:35:39.246Z,8.85
2023-03-06T14:37:40.899Z,8.98
2023-03-06T14:39:44.194Z,10.63
2023-03-06T14:41:45.829Z,10.02
2023-03-06T14:43:47.436Z,11.45
2023-03-06T14:46:03.590Z,9.05
2023-03-06T14:48:06.421Z,9.88
2023-03-06T14:50:24.583Z,9.40
2023-03-06T14:52:26.213Z,10.07
2023-03-06T14:54:34.006Z,10.52
2023-03-06T14:56:42.066Z,8.43
2023-03-06T14:58:59.175Z,11.32
2023-03-06T15:01:09.926Z,9.30
2023-03-06T15:03:17.920Z,9.13
2023-03-06T15:05:27.697Z,10.25
2023-03-06T15:07:31.649Z,9.68
2023-03-06T15:09:35.791Z,8.68
2023-03-06T15:11:57.835Z,8.50
2023-03-06T15:14:04.412Z,8.48
2023-03-06T15:16:06.174Z,7.53
2023-03-06T15:18:54.584Z,7.90
2023-03-06T15:21:20.852Z,9.35
2023-03-06T15:23:34.607Z,9.27
2023-03-06T15:25:36.313Z,7.95
2023-03-06T15:27:38.099Z,9.13
2023-03-06T15:29:39.813Z,10.00
2023-03-06T15:31:44.434Z,9.90
2023-03-06T15:34:09.065Z,9.60
2023-03-06T15:36:30.681Z,7.68
2023-03-06T15:38:32.800Z,9.68
2023-03-06T15:40:34.512Z,9.95
2023-03-06T15:42:36.595Z,8.23
2023-03-06T15:44:38.216Z,9.18
2023-03-06T15:46:39.997Z,10.23
2023-03-06T15:48:55.215Z,9.00
2023-03-06T15:50:57.113Z,11.68
2023-03-06T15:52:58.831Z,12.05
2023-03-06T15:55:00.322Z,9.40
2023-03-06T15:57:05.143Z,11.18
2023-03-06T15:59:10.670Z,8.63
2023-03-06T16:01:16.460Z,15.75
2023-03-06T16:03:18.245Z,11.20
2023-03-06T16:05:20.385Z,10.88
2023-03-06T16:07:21.911Z,8.63
2023-03-06T16:09:23.662Z,9.85
2023-03-06T16:11:41.817Z,10.10
2023-03-06T16:13:45.966Z,9.93
2023-03-06T16:17:51.011Z,31.65
2023-03-06T16:19:52.892Z,10.73
2023-03-06T16:21:55.658Z,11.07
2023-03-06T16:25:58.808Z,10.70
2023-03-06T16:28:00.904Z,11.70
2023-03-06T16:30:03.537Z,10.52
2023-03-06T16:32:05.686Z,9.68
2023-03-06T16:34:07.289Z,9.05
2023-03-06T16:36:13.795Z,10.60
2023-03-06T16:38:16.544Z,9.00
2023-03-06T16:40:24.118Z,8.82
2023-03-06T16:42:25.760Z,9.98
2023-03-06T16:44:27.287Z,10.77
2023-03-06T16:46:29.397Z,9.98
2023-03-06T16:48:38.362Z,10.07
2023-03-06T16:50:40.216Z,7.55
2023-03-06T16:52:41.787Z,7.35
2023-03-06T16:54:44.782Z,8.35
2023-03-06T16:56:46.547Z,8.35
2023-03-06T16:58:48.579Z,7.97
2023-03-06T17:00:50.211Z,9.75
2023-03-06T17:02:52.688Z,8.88
2023-03-06T17:04:55.472Z,7.85
2023-03-06T17:06:58.502Z,8.05
2023-03-06T17:09:00.193Z,9.13
2023-03-06T17:11:05.709Z,10.48
2023-03-06T17:13:08.518Z,8.30
2023-03-06T17:15:11.610Z,10.10
2023-03-06T17:17:13.142Z,8.23
2023-03-06T17:19:15.272Z,9.15
2023-03-06T17:21:16.937Z,9.80
2023-03-06T17:23:21.075Z,9.00
2023-03-06T17:25:23.158Z,10.02
2023-03-06T17:27:24.789Z,9.68
2023-03-06T17:29:26.281Z,8.63
2023-03-06T17:31:28.857Z,8.85
2023-03-06T17:33:30.655Z,8.18
2023-03-06T17:35:35.179Z,8.32
2023-03-06T17:37:36.936Z,9.55
2023-03-06T17:39:38.881Z,8.55
2023-03-06T17:41:40.573Z,10.85
2023-03-06T17:43:42.528Z,8.40
2023-03-06T17:45:47.287Z,8.60
2023-03-06T17:47:52.863Z,8.38
2023-03-06T17:49:54.537Z,8.10
2023-03-06T17:51:59.938Z,7.72
2023-03-06T17:54:01.616Z,7.68
2023-03-06T17:56:05.132Z,8.18
2023-03-06T17:58:07.160Z,10.10
2023-03-06T18:00:10.767Z,8.38
2023-03-06T18:02:17.633Z,9.25
2023-03-06T18:04:19.286Z,8.50
2023-03-06T18:06:22.109Z,10.00
2023-03-06T18:08:24.499Z,8.23
2023-03-06T18:10:25.995Z,7.75
2023-03-06T18:12:27.534Z,6.22
2023-03-06T18:14:29.080Z,6.10
2023-03-06T18:16:30.702Z,7.68
2023-03-06T18:18:33.213Z,7.70
2023-03-06T18:20:40.182Z,8.43
2023-03-06T18:22:41.743Z,10.18
2023-03-06T18:24:44.100Z,7.03
2023-03-06T18:26:45.861Z,7.78
2023-03-06T18:28:51.874Z,8.70
2023-03-06T18:30:53.362Z,10.75
2023-03-06T18:32:55.140Z,9.05
2023-03-06T18:34:57.014Z,6.28
2023-03-06T18:36:58.628Z,9.57
2023-03-06T18:39:03.590Z,8.38
2023-03-06T18:41:07.572Z,9.40
2023-03-06T18:43:09.096Z,9.73
2023-03-06T18:45:12.800Z,9.77
2023-03-06T18:47:15.545Z,9.18
2023-03-06T18:49:17.305Z,8.68
2023-03-06T18:51:20.101Z,10.73
2023-03-06T18:53:22.190Z,10.05
2023-03-06T18:55:23.808Z,10.55
2023-03-06T18:57:25.521Z,8.98
2023-03-06T18:59:27.224Z,8.95
2023-03-06T19:01:31.159Z,9.82
2023-03-06T19:03:32.958Z,10.32
2023-03-06T19:05:38.695Z,10.73
2023-03-06T19:07:40.278Z,11.82
2023-03-06T19:09:44.514Z,10.20
2023-03-06T19:11:46.876Z,11.00
2023-03-06T19:13:48.697Z,11.45
2023-03-06T19:15:50.300Z,13.18
2023-03-06T19:17:51.948Z,12.30
2023-03-06T19:19:54.992Z,13.98
2023-03-06T19:22:00.041Z,14.48
2023-03-06T19:24:02.646Z,11.85
2023-03-06T19:26:04.257Z,12.57
2023-03-06T19:28:06.025Z,13.05
2023-03-06T19:30:08.465Z,13.68
2023-03-06T19:32:10.128Z,14.02
2023-03-06T19:34:11.904Z,12.60
2023-03-06T19:36:14.853Z,12.88
2023-03-06T19:38:16.617Z,15.27
2023-03-06T19:40:18.379Z,15.32
2023-03-06T19:42:19.911Z,16.02
2023-03-06T19:44:23.023Z,11.90
2023-03-06T19:46:26.040Z,12.48
2023-03-06T19:48:27.744Z,14.00
2023-03-06T19:50:29.646Z,11.75
2023-03-06T19:52:31.255Z,11.32
2023-03-06T19:54:32.962Z,13.10
2023-03-06T19:56:34.558Z,14.25
2023-03-06T19:58:36.909Z,10.98
2023-03-06T20:00:38.500Z,12.30
2023-03-06T20:02:40.126Z,12.70
2023-03-06T20:04:41.983Z,10.73
2023-03-06T20:06:46.612Z,14.23
2023-03-06T20:08:48.947Z,11.60
2023-03-06T20:10:50.516Z,13.38
2023-03-06T20:12:52.507Z,12.40
2023-03-06T20:14:54.068Z,12.77
2023-03-06T20:16:55.644Z,12.50
2023-03-06T20:18:58.786Z,14.00
2023-03-06T20:21:02.111Z,13.27
2023-03-06T20:23:04.585Z,13.50
2023-03-06T20:25:06.479Z,11.18
2023-03-06T20:27:08.095Z,11.27
2023-03-06T20:29:10.293Z,12.82
2023-03-06T20:31:18.265Z,13.02
2023-03-06T20:33:22.059Z,11.25
2023-03-06T20:35:23.669Z,13.38
2023-03-06T20:37:25.163Z,13.25
2023-03-06T20:39:26.890Z,12.15
2023-03-06T20:41:30.105Z,12.00
2023-03-06T20:43:31.672Z,12.45
2023-03-06T20:45:33.743Z,13.93
2023-03-06T20:47:35.572Z,11.80
2023-03-06T20:49:37.983Z,13.73
2023-03-06T20:51:41.458Z,10.70
2023-03-06T20:53:43.401Z,11.80
2023-03-06T20:55:47.937Z,11.85
2023-03-06T20:57:51.932Z,14.82
2023-03-06T21:01:55.100Z,16.00
2023-03-06T21:03:58.201Z,11.25
2023-03-06T21:06:00.118Z,12.15
2023-03-06T21:08:01.637Z,14.30
2023-03-06T21:10:03.482Z,13.90
2023-03-06T21:12:05.898Z,12.35
2023-03-06T21:14:07.603Z,14.10
2023-03-06T21:16:14.715Z,16.98
2023-03-06T21:18:16.434Z,13.70
2023-03-06T21:20:18.103Z,14.45
2023-03-06T21:22:19.731Z,14.60
2023-03-06T21:24:21.497Z,15.00
2023-03-06T21:26:25.780Z,16.67
2023-03-06T21:28:27.410Z,16.08
2023-03-06T21:30:29.794Z,16.30
2023-03-06T21:32:31.974Z,16.63
2023-03-06T21:34:33.701Z,17.10
2023-03-06T21:36:35.330Z,17.83
2023-03-06T21:38:37.680Z,17.50
2023-03-06T21:40:39.616Z,19.25
2023-03-06T21:42:41.442Z,14.80
2023-03-06T21:44:43.116Z,16.17
2023-03-06T21:46:45.640Z,18.23
2023-03-06T21:48:47.217Z,15.48
2023-03-06T21:50:48.876Z,15.48
2023-03-06T21:52:51.211Z,17.33
2023-03-06T21:54:52.848Z,16.85
2023-03-06T21:56:54.697Z,16.88
2023-03-06T21:58:57.942Z,15.25
2023-03-06T22:01:00.211Z,15.65
2023-03-06T22:03:04.706Z,18.23
2023-03-06T22:05:06.584Z,18.08
2023-03-06T22:07:08.276Z,15.52
2023-03-06T22:09:10.064Z,17.27
2023-03-06T22:11:14.794Z,16.17
2023-03-06T22:13:16.405Z,17.42
2023-03-06T22:15:18.077Z,16.88
2023-03-06T22:17:19.872Z,18.42
2023-03-06T22:19:21.404Z,17.42
2023-03-06T22:21:23.804Z,17.38
2023-03-06T22:23:25.712Z,17.48
2023-03-06T22:25:27.262Z,18.63
2023-03-06T22:27:29.723Z,17.63
2023-03-06T22:29:31.206Z,20.00
2023-03-06T22:31:32.939Z,17.20
2023-03-06T22:33:34.991Z,17.80
2023-03-06T22:35:36.726Z,17.45
2023-03-06T22:37:38.423Z,17.63
2023-03-06T22:39:40.145Z,18.13
2023-03-06T22:41:41.665Z,17.60
2023-03-06T22:43:43.994Z,18.63
2023-03-06T22:45:45.824Z,17.10
2023-03-06T22:47:47.394Z,20.92
2023-03-06T22:49:49.017Z,22.25
2023-03-06T22:51:50.592Z,20.45
2023-03-06T22:53:52.417Z,16.33
2023-03-06T22:55:57.829Z,18.27
2023-03-06T22:57:59.323Z,16.70
2023-03-06T23:00:01.065Z,18.90
2023-03-06T23:02:03.664Z,19.75
2023-03-06T23:04:10.845Z,15.75
2023-03-06T23:06:18.333Z,18.00
2023-03-06T23:08:19.881Z,16.27
2023-03-06T23:10:21.419Z,17.50
2023-03-06T23:12:41.636Z,19.33
2023-03-06T23:15:02.019Z,16.42
2023-03-06T23:17:22.316Z,15.93
2023-03-06T23:19:42.450Z,14.93
2023-03-06T23:22:02.543Z,19.05
2023-03-06T23:24:22.828Z,14.00
2023-03-06T23:26:26.335Z,14.82
2023-03-06T23:28:28.782Z,13.90
2023-03-06T23:30:30.353Z,16.77
2023-03-06T23:32:33.535Z,15.50
2023-03-06T23:34:35.340Z,22.17
2023-03-06T23:36:36.990Z,18.10
2023-03-06T23:38:39.238Z,18.27
2023-03-06T23:40:40.999Z,18.60
2023-03-06T23:42:42.495Z,17.55
2023-03-06T23:44:44.597Z,14.25
2023-03-06T23:46:46.354Z,18.38
2023-03-06T23:48:47.864Z,21.35
2023-03-06T23:50:49.839Z,17.40
2023-03-06T23:52:55.283Z,19.42
2023-03-06T23:54:56.761Z,17.50
2023-03-06T23:56:58.333Z,18.23
2023-03-06T23:59:00.036Z,19.05
